Tiempo atmosférico en la estación meteorológica de Vandellós, Tarragona (22 m.)



Fecha
DESCASC
Temp. máxima en grados centígrados (hora)
DESCASC
Temp. mínima en grados centígrados (hora)
DESCASC
Temp. media en grados centígrados
DESCASC
Racha de viento máxima en m/sg (hora)
DESCASC
Velocidad máxima media en intervalos de 10 minutos(hora)
DESCASC
Precipitaciones diarias en mm
DESCASC
Precipitaciones de 00:00 a 06:00 en mm
DESCASC
Precipitaciones de 06:00 a 12:00 en mm
DESCASC
Precipitaciones de 12:00 a 18:00 en mm
DESCASC
Precipitaciones de 18:00 a 24:00 en mm
DESCASC
22-04-2019 16.6 (13:50) 12 (06:50) 14.3 8.89 (19:20) 4.72 (14:10) 0.3 0 0.1 0.1 0.1
21-04-2019 17.1 (11:00) 14 (22:30) 15.6 10.28 (03:50) 4.17 (03:50) 0 0 0 0 0
20-04-2019 17.9 (11:00) 11.4 (20:30) 14.6 13.33 (22:40) 6.11 (20:50) 2.7 0 0 0.9 1.8
19-04-2019 17.7 (16:10) 14.7 (00:10) 16.2 14.72 (18:10) 6.39 (03:00) 0 0 0 0 0
18-04-2019 18 (13:30) 12.8 (00:00) 15.4 13.61 (19:00) 5.83 (16:00) 0 0 0 0 0
17-04-2019 17.6 (13:40) 9.9 (00:00) 13.8 5.83 (15:00) 2.78 (13:50) 0 0 0 0 0
16-04-2019 18.1 (15:10) 11.4 (00:00) 14.8 6.11 (11:40) 2.78 (10:10) 0 0 0 0 0
15-04-2019 16.6 (11:50) 11.2 (00:00) 13.9 6.94 (01:40) 3.33 (02:40) 0 0 0 0 0
14-04-2019 17.9 (13:10) 8.2 (00:00) 13 11.11 (11:30) 2.78 (14:20) 0 0 0 0 0
13-04-2019 22.3 (14:30) 11.1 (00:00) 16.7 16.39 (08:20) 6.39 (09:00) 0 0 0 0 0
12-04-2019 21.8 (17:30) 10.8 (00:00) 16.3 19.72 (04:20) 9.72 (05:30) 0 0 0 0 0
11-04-2019 20.7 (16:50) 10.4 (00:00) 15.6 18.89 (06:20) 9.72 (07:10) 0 0 0 0 0
10-04-2019 20.6 (18:20) 10.9 (00:00) 15.8 19.17 (06:50) 9.17 (06:50) 0 0 0 0 0
09-04-2019 20.9 (15:00) 11.7 (00:00) 16.3 18.61 (06:40) 9.44 (07:10) 0 0 0 0 0
08-04-2019 20.7 (14:40) 8.1 (00:00) 14.4 8.61 (15:20) 3.06 (12:50) -- 0 0 -- 0
07-04-2019 18.1 (17:50) 9.6 (00:00) 13.9 18.33 (11:30) 6.94 (13:10) 0 0 0 0 0
06-04-2019 17.8 (14:30) 8.9 (00:00) 13.3 19.72 (05:40) 6.94 (05:50) 0.2 0.1 0 0 0.1
05-04-2019 17.4 (15:00) 9.9 (00:00) 13.6 5.83 (14:30) 3.33 (12:40) 1.4 0 0 0 1.4
04-04-2019 17.1 (17:20) 6.3 (00:00) 11.7 18.06 (07:50) 9.72 (03:10) 0 0 0 0 0
03-04-2019 17.1 (13:40) 8.9 (19:40) 13 16.67 (18:40) 9.72 (18:20) 3 0 0 0 3
02-04-2019 18.1 (14:00) 8.4 (00:00) 13.3 6.11 (13:00) 2.5 (12:50) 0 0 0 0 0
01-04-2019 16 (14:40) 11.2 (00:00) 13.6 5.83 (00:10) 2.22 (16:20) 0 0 0 0 0
31-03-2019 14.8 (14:20) 9.1 (00:00) 12 6.94 (20:20) 3.06 (20:20) 0.3 0 0 0 0.3
30-03-2019 16.4 (13:10) 9.1 (00:00) 12.8 5 (12:30) 2.5 (13:10) 0 0 0 0 0
29-03-2019 16.8 (12:40) 7.5 (00:00) 12.1 4.44 (13:00) 1.94 (13:00) 0 0 0 0 0
28-03-2019 18.4 (14:20) 8.2 (00:00) 13.3 5.56 (09:10) 2.22 (09:20) -- 0 0 -- 0
27-03-2019 17.4 (12:00) 6.8 (00:00) 12.1 6.67 (17:30) 2.78 (00:30) 0 0 0 0 0
26-03-2019 20.4 (13:50) 9.9 (00:00) 15.1 21.67 (02:50) 8.06 (01:10) 0 0 0 0 0
25-03-2019 22.3 (16:10) 10.7 (00:00) 16.5 17.78 (21:40) 7.5 (09:10) 0 0 0 0 0

Gráficas

Temp. máximas Temp. mínimas Temp. medias Precipitaciones Rachas de viento máximas Velocidades máximas media en intervalos de 10 minutos

Datos horarios

Fecha y hora oficial Temperatura (ºC) Velocidad del viento (km/h) Dirección del viento Racha (km/h) Dirección de racha Precipitación (mm) Presión (hPa) Tendencia (hPa) Humedad (%)
2019-04-23 23:00:00 14.2 0 Calma 6 Norte 0.1 -- -- 82
2019-04-23 22:00:00 14.6 0 Calma 8 Nordeste 0.2 -- -- 81
2019-04-23 21:00:00 14.7 4 Nordeste 16 Nordeste 0.2 -- -- 82
2019-04-23 20:00:00 15 7 Nordeste 19 Nordeste 0.3 -- -- 80
2019-04-23 19:00:00 15.6 3 Nordeste 13 Nordeste 0.3 -- -- 75
2019-04-23 18:00:00 16.5 7 Este 13 Este 0.3 -- -- 75
2019-04-23 17:00:00 16.9 6 Este 13 Este 0.5 -- -- 75
2019-04-23 16:00:00 16.8 6 Este 15 Este 0.5 -- -- 74
2019-04-23 15:00:00 17.5 7 Este 16 Sudeste 0.7 -- -- 70
2019-04-23 14:00:00 17.3 7 Este 14 Este 1 -- -- 72
2019-04-23 13:00:00 16.3 5 Sudeste 17 Sudeste 0.5 -- -- 74
2019-04-23 12:00:00 16.1 6 Sudeste 14 Sur 0.6 -- -- 76
2019-04-23 11:00:00 15.4 5 Sudeste 13 Sudeste 0.6 -- -- 74
2019-04-23 10:00:00 14.8 5 Sur 12 Sur 0.1 -- -- 74
2019-04-23 09:00:00 13.6 4 Sudoeste 10 Sudoeste 0 -- -- 80
2019-04-23 08:00:00 12.4 0 Calma 5 Oeste 0 -- -- 89
2019-04-23 07:00:00 12.9 0 Calma 8 Oeste 0 -- -- 85
2019-04-23 06:00:00 13 3 Oeste 10 Noroeste 0 -- -- 82
2019-04-23 05:00:00 12.9 4 Oeste 9 Oeste 0 -- -- 84
2019-04-23 04:00:00 13.2 5 Oeste 10 Noroeste 0.1 -- -- 82
2019-04-23 03:00:00 12.1 2 Oeste 8 Sudoeste 0 -- -- 92
2019-04-23 02:00:00 12.5 0 Calma 5 Norte 0 -- -- 91
2019-04-23 01:00:00 12.7 2 Norte 14 Oeste 0 -- -- 90
2019-04-23 00:00:00 13 6 Oeste 15 Oeste 0.1 -- -- 79
2019-04-22 23:00:00 14.2 7 Noroeste 16 Noroeste 0 -- -- 71
2019-04-22 22:00:00 14.9 2 Sudeste 10 Noroeste 0 -- -- 67
2019-04-22 21:00:00 15.1 8 Noroeste 22 Norte 0 -- -- 63
2019-04-22 20:00:00 15.2 10 Noroeste 32 Noroeste 0 -- -- 62
2019-04-22 19:00:00 15.4 8 Noroeste 19 Oeste 0 -- -- 65
2019-04-22 18:00:00 15.3 0 Calma 26 Noroeste 0 -- -- 70
2019-04-22 17:00:00 14.2 5 Norte 19 Noroeste 0.1 -- -- 74
2019-04-22 16:00:00 15.7 9 Noroeste 24 Noroeste 0 -- -- 61
2019-04-22 15:00:00 15.6 13 Noroeste 29 Noroeste 0 -- -- 62
2019-04-22 14:00:00 15.3 17 Noroeste 29 Noroeste 0 -- -- 61
2019-04-22 13:00:00 15.8 10 Noroeste 21 Noroeste 0 -- -- 57
2019-04-22 12:00:00 15 3 Oeste 28 Norte 0 -- -- 63
2019-04-22 11:00:00 15.3 9 Norte 23 Norte 0 -- -- 57
2019-04-22 10:00:00 15.1 9 Noroeste 21 Noroeste 0 -- -- 59
2019-04-22 09:00:00 14.3 10 Noroeste 21 Noroeste 0.1 -- -- 63
2019-04-22 08:00:00 14.6 7 Norte 23 Norte 0 -- -- 62
2019-04-22 07:00:00 12 0 Calma 10 Sudoeste 0 -- -- 86
2019-04-22 06:00:00 14.2 0 Calma 11 Este 0 -- -- 70
2019-04-22 05:00:00 15.7 3 Norte 23 Nordeste 0 -- -- 47
2019-04-22 04:00:00 15.6 8 Norte 21 Nordeste 0 -- -- 49
2019-04-22 03:00:00 15.4 6 Nordeste 19 Nordeste 0 -- -- 52
2019-04-22 02:00:00 15.2 2 Norte 16 Norte 0 -- -- 55
2019-04-22 01:00:00 15.1 5 Norte 17 Nordeste 0 -- -- 57
2019-04-22 00:00:00 15.1 3 Nordeste 14 Norte 0 -- -- 60
2019-04-21 23:00:00 14.2 0 Calma 9 Este 0 -- -- 72
2019-04-21 22:00:00 14.5 0 Calma 7 Norte 0 -- -- 70
2019-04-21 21:00:00 14.9 3 Nordeste 12 Nordeste 0 -- -- 70
2019-04-21 20:00:00 14.9 6 Nordeste 27 Nordeste 0 -- -- 70
2019-04-21 19:00:00 14.9 12 Nordeste 32 Norte 0 -- -- 69
2019-04-21 18:00:00 15.6 8 Nordeste 25 Noroeste 0 -- -- 62
2019-04-21 17:00:00 15.5 8 Norte 22 Norte 0 -- -- 63
2019-04-21 16:00:00 15.4 8 Norte 22 Nordeste 0 -- -- 62
2019-04-21 15:00:00 15.4 6 Nordeste 25 Nordeste 0 -- -- 63
2019-04-21 14:00:00 15.5 10 Nordeste 28 Nordeste 0 -- -- 66
2019-04-21 13:00:00 15.4 13 Nordeste 36 Nordeste 0 -- -- 65
2019-04-21 12:00:00 16.2 7 Nordeste 25 Nordeste 0 -- -- 57
2019-04-21 11:00:00 17.1 7 Nordeste 22 Noroeste 0 -- -- 46
2019-04-21 10:00:00 15.6 6 Norte 22 Norte 0 -- -- 50
2019-04-21 09:00:00 14.7 7 Norte 25 Nordeste 0 -- -- 52
2019-04-21 08:00:00 14.9 9 Norte 23 Nordeste 0 -- -- 51
2019-04-21 07:00:00 14.8 9 Nordeste 27 Noroeste 0 -- -- 51
2019-04-21 06:00:00 15 9 Norte 26 Norte 0 -- -- 50
2019-04-21 05:00:00 14.7 10 Norte 32 Nordeste 0 -- -- 51
2019-04-21 04:00:00 14.7 12 Norte 37 Norte 0 -- -- 53
2019-04-21 03:00:00 14.6 10 Norte 32 Norte 0 -- -- 53
2019-04-21 02:00:00 14.6 14 Norte 34 Noroeste 0 -- -- 54
2019-04-21 01:00:00 14.9 12 Norte 34 Norte 0 -- -- 53
2019-04-21 00:00:00 14.3 12 Norte 38 Noroeste 0 -- -- 56
2019-04-20 23:00:00 14.1 18 Norte 48 Norte 0.1 -- -- 57
2019-04-20 22:00:00 13.1 20 Norte 47 Norte 0.3 -- -- 65
2019-04-20 21:00:00 12.7 18 Norte 47 Noroeste 0.5 -- -- 68
2019-04-20 20:00:00 11.7 9 Norte 29 Norte 0.6 -- -- 78
2019-04-20 19:00:00 14 10 Nordeste 26 Nordeste 0.3 -- -- 66
2019-04-20 18:00:00 13.5 4 Norte 24 Nordeste 0.4 -- -- 81
2019-04-20 17:00:00 14.6 10 Nordeste 28 Nordeste 0.5 -- -- 66
2019-04-20 16:00:00 16.3 10 Nordeste 32 Nordeste 0 -- -- 56
2019-04-20 15:00:00 16.3 10 Nordeste 36 Nordeste 0 -- -- 56
2019-04-20 14:00:00 17.6 15 Nordeste 42 Nordeste 0 -- -- 49
2019-04-20 13:00:00 16.3 15 Nordeste 40 Este 0 -- -- 61
2019-04-20 12:00:00 16.1 9 Nordeste 24 Nordeste 0 -- -- 59
2019-04-20 11:00:00 17.8 11 Nordeste 36 Nordeste 0 -- -- 39
2019-04-20 10:00:00 17.5 14 Nordeste 38 Norte 0 -- -- 40
2019-04-20 09:00:00 17.2 12 Nordeste 33 Nordeste 0 -- -- 41
2019-04-20 08:00:00 16.7 12 Nordeste 31 Nordeste 0 -- -- 42
2019-04-20 07:00:00 16.8 12 Nordeste 33 Nordeste 0 -- -- 42
2019-04-20 06:00:00 16.3 14 Nordeste 36 Nordeste 0 -- -- 43
2019-04-20 05:00:00 16 13 Nordeste 32 Nordeste 0 -- -- 45
2019-04-20 04:00:00 15.8 11 Norte 31 Nordeste 0 -- -- 46
2019-04-20 03:00:00 16 11 Nordeste 32 Norte 0 -- -- 46
2019-04-20 02:00:00 16.2 11 Nordeste 29 Nordeste 0 -- -- 46
2019-04-20 01:00:00 16.6 11 Nordeste 27 Nordeste 0 -- -- 45
2019-04-20 00:00:00 16.8 10 Nordeste 33 Nordeste 0 -- -- 45
2019-04-19 23:00:00 17.1 13 Nordeste 32 Nordeste 0 -- -- 50
2019-04-19 22:00:00 16.5 12 Nordeste 37 Nordeste 0 -- -- 58
2019-04-19 21:00:00 15.1 12 Nordeste 32 Nordeste 0 -- -- 70
2019-04-19 20:00:00 16.1 12 Nordeste 41 Nordeste 0 -- -- 61
2019-04-19 19:00:00 16.8 16 Nordeste 53 Nordeste 0 -- -- 55
2019-04-19 18:00:00 16.4 19 Nordeste 50 Nordeste 0 -- -- 57
2019-04-19 17:00:00 17.1 15 Nordeste 48 Nordeste 0 -- -- 56
2019-04-19 16:00:00 17.3 18 Nordeste 40 Nordeste 0 -- -- 57
2019-04-19 15:00:00 16.7 15 Nordeste 45 Nordeste 0 -- -- 61
2019-04-19 14:00:00 17.3 17 Nordeste 43 Nordeste 0 -- -- 56
2019-04-19 13:00:00 17.1 18 Nordeste 41 Nordeste 0 -- -- 57
2019-04-19 12:00:00 16.6 19 Nordeste 48 Nordeste 0 -- -- 61
2019-04-19 11:00:00 16.4 19 Nordeste 50 Nordeste 0 -- -- 62
2019-04-19 10:00:00 15.9 15 Nordeste 43 Nordeste 0 -- -- 64
2019-04-19 09:00:00 15.5 15 Nordeste 35 Nordeste 0 -- -- 63
2019-04-19 08:00:00 15.1 10 Nordeste 36 Nordeste 0 -- -- 65
2019-04-19 07:00:00 15 12 Nordeste 31 Nordeste 0 -- -- 63
2019-04-19 06:00:00 14.9 10 Nordeste 36 Nordeste 0 -- -- 64
2019-04-19 05:00:00 15 11 Nordeste 35 Nordeste 0 -- -- 61
2019-04-19 04:00:00 14.9 11 Nordeste 39 Nordeste 0 -- -- 61
2019-04-19 03:00:00 15.2 23 Nordeste 48 Nordeste 0 -- -- 67
2019-04-19 02:00:00 15.2 16 Nordeste 42 Nordeste 0 -- -- 66
2019-04-19 01:00:00 15 16 Nordeste 40 Nordeste 0 -- -- 68
2019-04-19 00:00:00 14.8 19 Nordeste 43 Nordeste 0 -- -- 68
2019-04-18 23:00:00 14.4 16 Nordeste 44 Nordeste 0 -- -- 75
2019-04-18 22:00:00 15.1 17 Nordeste 41 Nordeste 0 -- -- 66
2019-04-18 21:00:00 14.7 14 Nordeste 42 Nordeste 0 -- -- 71
2019-04-18 20:00:00 15.5 19 Nordeste 45 Nordeste 0 -- -- 62
2019-04-18 19:00:00 16.1 19 Nordeste 49 Nordeste 0 -- -- 61
2019-04-18 18:00:00 16.4 18 Nordeste 46 Nordeste 0 -- -- 60
2019-04-18 17:00:00 16.4 19 Nordeste 41 Nordeste 0 -- -- 61
2019-04-18 16:00:00 16.9 21 Nordeste 39 Nordeste 0 -- -- 55
2019-04-18 15:00:00 16.8 14 Nordeste 42 Nordeste 0 -- -- 53
2019-04-18 14:00:00 16.9 13 Nordeste 36 Este 0 -- -- 50
2019-04-18 13:00:00 17.2 14 Nordeste 37 Nordeste 0 -- -- 49
2019-04-18 12:00:00 16.3 15 Nordeste 41 Norte 0 -- -- 50
2019-04-18 11:00:00 14.6 14 Nordeste 39 Nordeste 0 -- -- 61
2019-04-18 10:00:00 13.9 12 Nordeste 27 Nordeste 0 -- -- 67
2019-04-18 09:00:00 13.7 9 Norte 23 Norte 0 -- -- 70
2019-04-18 08:00:00 13 6 Nordeste 16 Norte 0 -- -- 78
2019-04-18 07:00:00 12.9 5 Norte 22 Nordeste 0 -- -- 79
2019-04-18 06:00:00 13 11 Nordeste 26 Nordeste 0 -- -- 78
2019-04-18 05:00:00 13.3 10 Nordeste 23 Este 0 -- -- 78
2019-04-18 04:00:00 13.6 7 Nordeste 18 Nordeste 0 -- -- 79
2019-04-18 03:00:00 13.7 5 Norte 27 Nordeste 0 -- -- 80
2019-04-18 02:00:00 13.9 10 Nordeste 27 Nordeste 0 -- -- 84
2019-04-18 01:00:00 13.8 8 Nordeste 24 Nordeste 0 -- -- 87
2019-04-18 00:00:00 13.9 8 Nordeste 21 Nordeste 0 -- -- 87
2019-04-17 23:00:00 14 9 Nordeste 20 Nordeste 0 -- -- 86
2019-04-17 22:00:00 13.7 7 Nordeste 18 Nordeste 0 -- -- 86
2019-04-17 21:00:00 13.7 7 Nordeste 17 Sudeste 0 -- -- 83
2019-04-17 20:00:00 13.7 7 Nordeste 18 Este 0 -- -- 80
2019-04-17 19:00:00 14.4 7 Nordeste 15 Sudeste 0 -- -- 76
2019-04-17 18:00:00 15.6 6 Este 18 Este 0 -- -- 69
2019-04-17 17:00:00 16.8 10 Este 19 Este 0 -- -- 64
2019-04-17 16:00:00 16 8 Este 19 Este 0 -- -- 68
2019-04-17 15:00:00 16.4 10 Este 21 Este 0 -- -- 63
2019-04-17 14:00:00 16.5 8 Este 21 Nordeste 0 -- -- 64
2019-04-17 13:00:00 16.2 8 Este 19 Este 0 -- -- 66
2019-04-17 12:00:00 15.3 6 Este 17 Este 0 -- -- 74
2019-04-17 11:00:00 13.9 5 Nordeste 16 Nordeste 0 -- -- 79
2019-04-17 10:00:00 13.5 5 Nordeste 13 Nordeste 0 -- -- 78
2019-04-17 09:00:00 13.1 3 Nordeste 12 Nordeste 0 -- -- 82
2019-04-17 08:00:00 11.9 2 Nordeste 5 Nordeste 0 -- -- 89
2019-04-17 07:00:00 10.8 2 Nordeste 6 Nordeste 0 -- -- 92
2019-04-17 06:00:00 9.9 0 Calma 6 Noroeste 0 -- -- 92
2019-04-17 05:00:00 10.2 0 Calma 3 Oeste 0 -- -- 91
2019-04-17 04:00:00 10.9 0 Calma 6 Norte 0 -- -- 91
2019-04-17 03:00:00 11.7 0 Calma 0 Calma 0 -- -- 90
2019-04-17 02:00:00 12 0 Calma 4 Nordeste 0 -- -- 90
2019-04-17 01:00:00 12.4 0 Calma 3 Nordeste 0 -- -- 85
2019-04-17 00:00:00 12.2 0 Calma 7 Norte 0 -- -- 87
2019-04-16 23:00:00 12.3 0 Calma 6 Nordeste 0 -- -- 87
2019-04-16 22:00:00 12.3 2 Norte 5 Nordeste 0 -- -- 87
2019-04-16 21:00:00 13.3 0 Calma 7 Nordeste 0 -- -- 83
2019-04-16 20:00:00 14.3 3 Este 8 Nordeste 0 -- -- 79
2019-04-16 19:00:00 15 4 Este 12 Este 0 -- -- 76
2019-04-16 18:00:00 15.7 6 Nordeste 14 Nordeste 0 -- -- 70
2019-04-16 17:00:00 16.5 6 Nordeste 16 Nordeste 0 -- -- 69
2019-04-16 16:00:00 17 8 Este 19 Nordeste 0 -- -- 65
2019-04-16 15:00:00 17.3 6 Este 16 Nordeste 0 -- -- 59
2019-04-16 14:00:00 16.9 8 Este 17 Este 0 -- -- 60
2019-04-16 13:00:00 17.6 8 Este 18 Este 0 -- -- 56
2019-04-16 12:00:00 17.2 7 Este 22 Sudeste 0 -- -- 56
2019-04-16 11:00:00 16.4 7 Sur 20 Noroeste 0 -- -- 56
2019-04-16 10:00:00 13.9 9 Noroeste 21 Noroeste 0 -- -- 64
2019-04-16 09:00:00 13.3 3 Oeste 16 Norte 0 -- -- 69
2019-04-16 08:00:00 12.6 5 Norte 14 Nordeste 0 -- -- 69
2019-04-16 07:00:00 12.8 3 Noroeste 13 Noroeste 0 -- -- 69
2019-04-16 06:00:00 12.6 3 Norte 9 Norte 0 -- -- 67
2019-04-16 05:00:00 12.5 4 Norte 15 Norte 0 -- -- 66
2019-04-16 04:00:00 12.2 4 Norte 13 Noroeste 0 -- -- 67
2019-04-16 03:00:00 11.9 6 Nordeste 15 Nordeste 0 -- -- 68
2019-04-16 02:00:00 11.8 4 Norte 18 Norte 0 -- -- 69
2019-04-16 01:00:00 12 5 Nordeste 12 Norte 0 -- -- 70
2019-04-16 00:00:00 12.4 5 Nordeste 15 Este 0 -- -- 70
2019-04-15 23:00:00 12.8 6 Nordeste 16 Nordeste 0 -- -- 69
2019-04-15 22:00:00 12.8 5 Nordeste 15 Este 0 -- -- 70
2019-04-15 21:00:00 12.7 6 Nordeste 16 Nordeste 0 -- -- 73
2019-04-15 20:00:00 13.1 6 Nordeste 16 Nordeste 0 -- -- 71
2019-04-15 19:00:00 14.2 6 Nordeste 18 Este 0 -- -- 66
2019-04-15 18:00:00 14.3 6 Nordeste 17 Nordeste 0 -- -- 65
2019-04-15 17:00:00 15 8 Nordeste 19 Nordeste 0 -- -- 61
2019-04-15 16:00:00 15.6 7 Nordeste 18 Este 0 -- -- 59
2019-04-15 15:00:00 15 8 Nordeste 19 Nordeste 0 -- -- 61
2019-04-15 14:00:00 15.5 7 Nordeste 21 Este 0 -- -- 59
2019-04-15 13:00:00 15.6 8 Nordeste 22 Este 0 -- -- 59
2019-04-15 12:00:00 16.1 8 Este 18 Este 0 -- -- 64
2019-04-15 11:00:00 14.8 6 Nordeste 16 Nordeste 0 -- -- 67
2019-04-15 10:00:00 14.8 7 Nordeste 17 Nordeste 0 -- -- 63
2019-04-15 09:00:00 14.6 5 Nordeste 13 Este 0 -- -- 62
2019-04-15 08:00:00 11.4 3 Norte 8 Nordeste 0 -- -- 69
2019-04-15 07:00:00 11.7 3 Norte 10 Nordeste 0 -- -- 67
2019-04-15 06:00:00 12.4 4 Norte 13 Norte 0 -- -- 68
2019-04-15 05:00:00 13 5 Norte 14 Norte 0 -- -- 70
2019-04-15 04:00:00 13.2 7 Norte 23 Nordeste 0 -- -- 79
2019-04-15 03:00:00 13.3 9 Nordeste 23 Norte 0 -- -- 81
2019-04-15 02:00:00 13.1 10 Nordeste 25 Nordeste 0 -- -- 82
2019-04-15 01:00:00 12.9 8 Nordeste 23 Nordeste 0 -- -- 86
2019-04-15 00:00:00 13.2 9 Nordeste 21 Norte 0 -- -- 87
2019-04-14 23:00:00 13.3 5 Nordeste 15 Nordeste 0 -- -- 88
2019-04-14 22:00:00 12.9 6 Nordeste 15 Este 0 -- -- 88
2019-04-14 21:00:00 13.4 7 Nordeste 20 Nordeste 0 -- -- 86
2019-04-14 20:00:00 13.8 9 Nordeste 21 Este 0 -- -- 85
2019-04-14 19:00:00 14.5 6 Nordeste 16 Nordeste 0 -- -- 85
2019-04-14 18:00:00 14.9 6 Nordeste 15 Nordeste 0 -- -- 81
2019-04-14 17:00:00 16 7 Nordeste 18 Nordeste 0 -- -- 71
2019-04-14 16:00:00 17.1 7 Este 17 Este 0 -- -- 67
2019-04-14 15:00:00 16.5 9 Este 19 Este 0 -- -- 64
2019-04-14 14:00:00 16.8 6 Este 15 Este 0 -- -- 65
2019-04-14 13:00:00 16.7 7 Este 16 Este 0 -- -- 64
2019-04-14 12:00:00 16.9 8 Este 40 Nordeste 0 -- -- 64
2019-04-14 11:00:00 15.6 5 Nordeste 23 Este 0 -- -- 63
2019-04-14 10:00:00 16 7 Este 20 Este 0 -- -- 48
2019-04-14 09:00:00 12.3 2 Nordeste 7 Este 0 -- -- 89
2019-04-14 08:00:00 11.1 0 Calma 5 Nordeste 0 -- -- 90
2019-04-14 07:00:00 9.4 0 Calma 6 Sur 0 -- -- 85
2019-04-14 06:00:00 8.7 0 Calma -- -- 0 -- -- 83
2019-04-14 05:00:00 8.5 0 Calma -- -- 0 -- -- 76
2019-04-14 04:00:00 8.4 0 Calma -- -- 0 -- -- 67
2019-04-14 03:00:00 9 0 Calma -- -- 0 -- -- 64
2019-04-14 02:00:00 9.6 0 Calma -- -- 0 -- -- 63
2019-04-14 01:00:00 10.1 0 Calma -- -- 0 -- -- 60
2019-04-14 00:00:00 11.1 0 Calma 8 Nordeste 0 -- -- 58
2019-04-13 23:00:00 13.1 3 Nordeste 8 Nordeste 0 -- -- 55
2019-04-13 22:00:00 13.4 4 Sudoeste 10 Sudoeste 0 -- -- 54
2019-04-13 21:00:00 15 3 Sudoeste 14 Sudoeste 0 -- -- 53
2019-04-13 20:00:00 17.1 4 Sur 18 Sudoeste 0 -- -- 49
2019-04-13 19:00:00 17.8 6 Sur 24 Sur 0 -- -- 50
2019-04-13 18:00:00 18.5 8 Sur 22 Sur 0 -- -- 52
2019-04-13 17:00:00 18.2 8 Sur 23 Sur 0 -- -- 50
2019-04-13 16:00:00 18.4 8 Sur 26 Sur 0 -- -- 52
2019-04-13 15:00:00 21.3 6 Este 28 Oeste 0 -- -- 39
2019-04-13 14:00:00 20.6 5 Sudeste 15 Sur 0 -- -- 40
2019-04-13 13:00:00 18.9 8 Sudeste 16 Sudeste 0 -- -- 40
2019-04-13 12:00:00 18 8 Este 18 Este 0 -- -- 43
2019-04-13 11:00:00 16.8 6 Este 36 Noroeste 0 -- -- 42
2019-04-13 10:00:00 14.7 17 Noroeste 41 Noroeste 0 -- -- 43
2019-04-13 09:00:00 13.2 23 Noroeste 59 Noroeste 0 -- -- 46
2019-04-13 08:00:00 12.6 17 Noroeste 42 Noroeste 0 -- -- 46
2019-04-13 07:00:00 12.3 21 Noroeste 41 Noroeste 0 -- -- 48
2019-04-13 06:00:00 13.1 13 Noroeste 25 Noroeste 0 -- -- 50
2019-04-13 05:00:00 12.8 6 Noroeste 41 Noroeste 0 -- -- 54
2019-04-13 04:00:00 13.5 5 Norte 32 Norte 0 -- -- 52
2019-04-13 03:00:00 13.9 5 Oeste 26 Noroeste 0 -- -- 49
2019-04-13 02:00:00 11.7 0 Calma 10 Este 0 -- -- 69
2019-04-13 01:00:00 12.7 5 Norte 18 Nordeste 0 -- -- 74
2019-04-13 00:00:00 12.8 7 Nordeste 19 Norte 0 -- -- 72
2019-04-12 23:00:00 13.9 5 Norte 16 Norte 0 -- -- 59
2019-04-12 22:00:00 14.2 2 Sur 20 Sudoeste 0 -- -- 54
2019-04-12 21:00:00 15.2 12 Sudoeste 25 Sudoeste 0 -- -- 53
2019-04-12 20:00:00 16.6 8 Sudoeste 21 Sudoeste 0 -- -- 52
2019-04-12 19:00:00 17.2 9 Sur 27 Sur 0 -- -- 52
2019-04-12 18:00:00 18.9 4 Sudeste 35 Sudeste 0 -- -- 48
2019-04-12 17:00:00 21.1 10 Oeste 35 Sudoeste 0 -- -- 33
2019-04-12 16:00:00 20.3 12 Oeste 39 Sudoeste 0 -- -- 35
2019-04-12 15:00:00 19.7 12 Oeste 39 Sudoeste 0 -- -- 38
2019-04-12 14:00:00 18.6 22 Noroeste 48 Noroeste 0 -- -- 42
2019-04-12 13:00:00 16.5 24 Noroeste 64 Noroeste 0 -- -- 46
2019-04-12 12:00:00 15.4 24 Noroeste 57 Noroeste 0 -- -- 49
2019-04-12 11:00:00 13.9 27 Noroeste 59 Noroeste 0 -- -- 52
2019-04-12 10:00:00 12.5 27 Noroeste 63 Noroeste 0 -- -- 54
2019-04-12 09:00:00 11.3 30 Noroeste 69 Noroeste 0 -- -- 57
2019-04-12 08:00:00 11 31 Noroeste 67 Noroeste 0 -- -- 58
2019-04-12 07:00:00 10.9 35 Noroeste 70 Noroeste 0 -- -- 58
2019-04-12 06:00:00 10.8 31 Noroeste 67 Noroeste 0 -- -- 58
2019-04-12 05:00:00 11.1 32 Noroeste 71 Noroeste 0 -- -- 56
2019-04-12 04:00:00 11.4 26 Noroeste 66 Noroeste 0 -- -- 54
2019-04-12 03:00:00 11.9 23 Noroeste 58 Oeste 0 -- -- 52
2019-04-12 02:00:00 12.2 23 Noroeste 64 Noroeste 0 -- -- 53
2019-04-12 01:00:00 12.9 22 Noroeste 59 Noroeste 0 -- -- 52
2019-04-12 00:00:00 13.7 22 Noroeste 55 Noroeste 0 -- -- 50
2019-04-11 23:00:00 14.4 20 Oeste 57 Oeste 0 -- -- 46
2019-04-11 22:00:00 15.3 24 Oeste 65 Oeste 0 -- -- 46
2019-04-11 21:00:00 15.7 25 Oeste 54 Sudoeste 0 -- -- 46
2019-04-11 20:00:00 17.1 19 Oeste 48 Oeste 0 -- -- 41
2019-04-11 19:00:00 18.1 17 Oeste 47 Oeste 0 -- -- 39
2019-04-11 18:00:00 19.8 11 Oeste 44 Sudoeste 0 -- -- 37
2019-04-11 17:00:00 20.1 12 Oeste 37 Sudoeste 0 -- -- 36
2019-04-11 16:00:00 19.4 14 Noroeste 46 Noroeste 0 -- -- 37
2019-04-11 15:00:00 18.5 17 Noroeste 52 Norte 0 -- -- 38
2019-04-11 14:00:00 16.8 24 Noroeste 53 Noroeste 0 -- -- 42
2019-04-11 13:00:00 16.4 26 Noroeste 66 Noroeste 0 -- -- 45
2019-04-11 12:00:00 15.3 19 Noroeste 60 Noroeste 0 -- -- 48
2019-04-11 11:00:00 13.4 29 Noroeste 66 Noroeste 0 -- -- 52
2019-04-11 10:00:00 12 30 Noroeste 67 Oeste 0 -- -- 56
2019-04-11 09:00:00 11 24 Noroeste 67 Noroeste 0 -- -- 59
2019-04-11 08:00:00 10.6 30 Noroeste 64 Noroeste 0 -- -- 58
2019-04-11 07:00:00 10.6 31 Noroeste 68 Noroeste 0 -- -- 58
2019-04-11 06:00:00 10.9 27 Noroeste 62 Oeste 0 -- -- 58
2019-04-11 05:00:00 11.3 24 Noroeste 58 Noroeste 0 -- -- 56
2019-04-11 04:00:00 11.7 24 Noroeste 59 Noroeste 0 -- -- 56
2019-04-11 03:00:00 12.2 21 Noroeste 49 Noroeste 0 -- -- 55
2019-04-11 02:00:00 13.1 22 Noroeste 44 Noroeste 0 -- -- 53
2019-04-11 01:00:00 13.9 10 Oeste 36 Noroeste 0 -- -- 52
2019-04-11 00:00:00 12.9 2 Sur 12 Este 0 -- -- 72
2019-04-10 23:00:00 13.8 3 Nordeste 15 Nordeste 0 -- -- 61
2019-04-10 22:00:00 14.6 6 Norte 40 Norte 0 -- -- 55
2019-04-10 21:00:00 16.4 13 Noroeste 30 Noroeste 0 -- -- 44
2019-04-10 20:00:00 15.7 0 Calma 15 Sudeste 0 -- -- 54
2019-04-10 19:00:00 19.4 5 Noroeste 22 Oeste 0 -- -- 36
2019-04-10 18:00:00 20.1 7 Oeste 26 Noroeste 0 -- -- 36
2019-04-10 17:00:00 20.1 11 Oeste 30 Noroeste 0 -- -- 36
2019-04-10 16:00:00 18.6 13 Noroeste 40 Noroeste 0 -- -- 39
2019-04-10 15:00:00 18.4 13 Noroeste 39 Sudoeste 0 -- -- 40
2019-04-10 14:00:00 17.8 16 Oeste 41 Sudoeste 0 -- -- 43
2019-04-10 13:00:00 16.9 19 Oeste 51 Oeste 0 -- -- 45
2019-04-10 12:00:00 16.2 18 Oeste 45 Noroeste 0 -- -- 47
2019-04-10 11:00:00 14.3 24 Noroeste 53 Noroeste 0 -- -- 50
2019-04-10 10:00:00 12.7 28 Noroeste 62 Noroeste 0 -- -- 53
2019-04-10 09:00:00 12.1 26 Noroeste 66 Noroeste 0 -- -- 55
2019-04-10 08:00:00 11.1 25 Noroeste 60 Norte 0 -- -- 58
2019-04-10 07:00:00 11.1 28 Noroeste 69 Noroeste 0 -- -- 59
2019-04-10 06:00:00 11.3 24 Noroeste 60 Noroeste 0 -- -- 58
2019-04-10 05:00:00 12.1 27 Noroeste 55 Noroeste 0 -- -- 55
2019-04-10 04:00:00 12.4 26 Noroeste 53 Noroeste 0 -- -- 57
2019-04-10 03:00:00 12.5 25 Noroeste 55 Noroeste 0 -- -- 56
2019-04-10 02:00:00 13.1 26 Noroeste 60 Noroeste 0 -- -- 54
2019-04-10 01:00:00 12.9 22 Noroeste 51 Noroeste 0 -- -- 54
2019-04-10 00:00:00 13.1 9 Noroeste 29 Noroeste 0 -- -- 52
2019-04-09 23:00:00 13.2 2 Noroeste 23 Este 0 -- -- 53
2019-04-09 22:00:00 14.5 3 Nordeste 22 Noroeste 0 -- -- 46
2019-04-09 21:00:00 16.5 7 Oeste 18 Oeste 0 -- -- 39
2019-04-09 20:00:00 17.6 6 Sudoeste 21 Oeste 0 -- -- 39
2019-04-09 19:00:00 17.1 6 Sur 27 Sudoeste 0 -- -- 48
2019-04-09 18:00:00 16.8 7 Sur 28 Sur 0 -- -- 52
2019-04-09 17:00:00 16.7 8 Sur 31 Sudeste 0 -- -- 52
2019-04-09 16:00:00 17.1 7 Sur 33 Sudoeste 0 -- -- 54
2019-04-09 15:00:00 19.2 12 Oeste 36 Sudoeste 0 -- -- 33
2019-04-09 14:00:00 19.5 7 Sudoeste 32 Oeste 0 -- -- 35
2019-04-09 13:00:00 17.8 9 Noroeste 29 Noroeste 0 -- -- 40
2019-04-09 12:00:00 17.2 6 Oeste 27 Noroeste 0 -- -- 44
2019-04-09 11:00:00 14.7 3 Sudeste 45 Norte 0 -- -- 53
2019-04-09 10:00:00 13.5 24 Noroeste 62 Noroeste 0 -- -- 54
2019-04-09 09:00:00 12.5 23 Noroeste 59 Noroeste 0 -- -- 56
2019-04-09 08:00:00 12.8 28 Noroeste 63 Noroeste 0 -- -- 55
2019-04-09 07:00:00 12.6 33 Noroeste 67 Noroeste 0 -- -- 57
2019-04-09 06:00:00 13.1 32 Noroeste 66 Noroeste 0 -- -- 55
2019-04-09 05:00:00 14.1 15 Noroeste 36 Noroeste 0 -- -- 53
2019-04-09 04:00:00 15.6 12 Noroeste 30 Noroeste 0 -- -- 51
2019-04-09 03:00:00 14.9 9 Noroeste 25 Oeste 0 -- -- 62
2019-04-09 02:00:00 12.3 0 Calma 4 Sudoeste 0 -- -- 75
2019-04-09 01:00:00 12.7 0 Calma 5 Este 0 -- -- 72
2019-04-09 00:00:00 14.2 3 Este 8 Este 0 -- -- 71
2019-04-08 23:00:00 16 3 Sur 21 Sudoeste 0 -- -- 54
2019-04-08 22:00:00 15.8 5 Sudoeste 17 Sudoeste 0 -- -- 54
2019-04-08 21:00:00 15.7 6 Oeste 20 Oeste 0 -- -- 56
2019-04-08 20:00:00 16.2 9 Sudoeste 19 Sudoeste 0 -- -- 58
2019-04-08 19:00:00 17.3 6 Sur 22 Sudoeste 0 -- -- 55
2019-04-08 18:00:00 17.5 5 Sur 22 Sudoeste 0 -- -- 58
2019-04-08 17:00:00 15.6 9 Sudoeste -- -- -- -- -- 66
2019-04-08 16:00:00 17.4 10 Sudeste 31 Oeste 0 -- -- 55
2019-04-08 15:00:00 19.9 10 Oeste 29 Oeste 0 -- -- 43
2019-04-08 14:00:00 18.6 7 Noroeste 28 Noroeste 0 -- -- 44
2019-04-08 13:00:00 18.6 10 Sudoeste 27 Sudoeste 0 -- -- 45
2019-04-08 12:00:00 17.5 5 Norte 23 Noroeste 0 -- -- 47
2019-04-08 11:00:00 16.8 5 Norte 16 Noroeste 0 -- -- 50
2019-04-08 10:00:00 14 5 Este 10 Este 0 -- -- 66
2019-04-08 09:00:00 11.7 0 Calma 6 Sudoeste 0 -- -- 78
2019-04-08 08:00:00 10.5 2 Sudoeste 7 Sudoeste 0 -- -- 83
2019-04-08 07:00:00 8.9 0 Calma 3 Norte 0 -- -- 83
2019-04-08 06:00:00 8.5 0 Calma 4 Norte 0 -- -- 81
2019-04-08 05:00:00 8.6 0 Calma 4 Sudoeste 0 -- -- 75
2019-04-08 04:00:00 9.5 4 Oeste 6 Oeste 0 -- -- 76
2019-04-08 03:00:00 9.7 0 Calma 4 Sudoeste 0 -- -- 73
2019-04-08 02:00:00 11.9 3 Oeste 8 Oeste 0 -- -- 63
2019-04-08 01:00:00 10.9 3 Oeste 7 Oeste 0 -- -- 70
2019-04-08 00:00:00 9.9 3 Nordeste 8 Nordeste 0 -- -- 75
2019-04-07 23:00:00 10.5 3 Norte 12 Norte 0 -- -- 74
2019-04-07 22:00:00 11 5 Nordeste 15 Norte 0 -- -- 69
2019-04-07 21:00:00 11.8 6 Norte 24 Nordeste 0 -- -- 65
2019-04-07 20:00:00 12.7 12 Nordeste 30 Noroeste 0 -- -- 59
2019-04-07 19:00:00 17.2 14 Noroeste 31 Noroeste 0 -- -- 36
2019-04-07 18:00:00 17.7 12 Oeste 31 Noroeste 0 -- -- 36
2019-04-07 17:00:00 16.7 16 Oeste 39 Oeste 0 -- -- 37
2019-04-07 16:00:00 16.8 15 Oeste 43 Noroeste 0 -- -- 39
2019-04-07 15:00:00 15.8 19 Oeste 57 Oeste 0 -- -- 41
2019-04-07 14:00:00 14.9 23 Noroeste 63 Oeste 0 -- -- 44
2019-04-07 13:00:00 14.3 22 Oeste 61 Oeste 0 -- -- 47
2019-04-07 12:00:00 13.5 18 Noroeste 66 Norte 0 -- -- 51
2019-04-07 11:00:00 11.8 22 Noroeste 55 Noroeste 0 -- -- 55
2019-04-07 10:00:00 9.9 22 Noroeste 64 Oeste 0 -- -- 59
2019-04-07 09:00:00 10 22 Oeste 54 Sudoeste 0 -- -- 57
2019-04-07 08:00:00 10.1 0 Calma 27 Oeste 0 -- -- 56
2019-04-07 07:00:00 9.9 5 Sur 57 Oeste 0 -- -- 56
2019-04-07 06:00:00 10.2 18 Noroeste 49 Oeste 0 -- -- 54
2019-04-07 05:00:00 10.8 21 Noroeste 55 Noroeste 0 -- -- 52
2019-04-07 04:00:00 10.7 17 Noroeste 44 Noroeste 0 -- -- 54
2019-04-07 03:00:00 10.8 17 Noroeste 40 Oeste 0 -- -- 52
2019-04-07 02:00:00 10.9 15 Oeste 39 Oeste 0 -- -- 52
2019-04-07 01:00:00 11.5 9 Oeste 29 Oeste 0 -- -- 52
2019-04-07 00:00:00 11.5 5 Noroeste 20 Sudoeste 0 -- -- 52
2019-04-06 23:00:00 10.8 5 Sudoeste 23 Oeste 0 -- -- 54
2019-04-06 22:00:00 12.2 5 Sudoeste 18 Oeste 0 -- -- 47
2019-04-06 21:00:00 12.2 8 Oeste 37 Noroeste 0 -- -- 50
2019-04-06 20:00:00 11.5 15 Noroeste 39 Noroeste 0.1 -- -- 58
2019-04-06 19:00:00 13.9 0 Calma 14 Sur 0 -- -- 58
2019-04-06 18:00:00 14.1 5 Sur 18 Sur 0 -- -- 55
2019-04-06 17:00:00 15.6 7 Sur 19 Sur 0 -- -- 44
2019-04-06 16:00:00 13.3 8 Sur 24 Sur 0 -- -- 54
2019-04-06 15:00:00 15.2 6 Sur 32 Sudoeste 0 -- -- 39
2019-04-06 14:00:00 16.6 14 Oeste 38 Sudoeste 0 -- -- 31
2019-04-06 13:00:00 16 15 Sudoeste 35 Oeste 0 -- -- 36
2019-04-06 12:00:00 15.2 9 Sudoeste 30 Sudoeste 0 -- -- 38
2019-04-06 11:00:00 14 9 Sudoeste 25 Oeste 0 -- -- 41
2019-04-06 10:00:00 13 6 Sudoeste 26 Sudoeste 0 -- -- 46
2019-04-06 09:00:00 9.7 7 Sudoeste 27 Sudoeste 0 -- -- 54
2019-04-06 08:00:00 9.4 7 Sudoeste 46 Oeste 0 -- -- 55
2019-04-06 07:00:00 9.7 17 Oeste 53 Noroeste 0 -- -- 54
2019-04-06 06:00:00 9.8 23 Noroeste 71 Oeste 0 -- -- 54
2019-04-06 05:00:00 9.2 24 Noroeste 60 Sudoeste 0 -- -- 59
2019-04-06 04:00:00 9.3 24 Noroeste 59 Noroeste 0 -- -- 59
2019-04-06 03:00:00 9.2 18 Noroeste 42 Noroeste 0 -- -- 62
2019-04-06 02:00:00 10.8 9 Noroeste 29 Noroeste 0.1 -- -- 63
2019-04-06 01:00:00 10.5 3 Oeste 10 Oeste 0 -- -- 84
2019-04-06 00:00:00 10.7 7 Sudoeste 15 Oeste 0.1 -- -- 86
2019-04-05 23:00:00 11.1 3 Oeste 16 Sudoeste 0.5 -- -- 83
2019-04-05 22:00:00 11.7 2 Sudoeste 10 Sudoeste 0.2 -- -- 88
2019-04-05 21:00:00 12.2 2 Oeste 20 Sur 0.5 -- -- 83
2019-04-05 20:00:00 13.4 4 Sur 17 Sur 0.1 -- -- 79
2019-04-05 19:00:00 13.9 6 Sur 18 Sur 0 -- -- 78
2019-04-05 18:00:00 14.7 4 Sudeste 12 Sudeste 0 -- -- 64
2019-04-05 17:00:00 16.2 4 Sudeste 20 Sudeste 0 -- -- 59
2019-04-05 16:00:00 15.8 6 Sudeste 20 Sur 0 -- -- 60
2019-04-05 15:00:00 17 7 Sudeste 21 Sudeste 0 -- -- 59
2019-04-05 14:00:00 16.5 7 Sudeste 21 Sudeste 0 -- -- 60
2019-04-05 13:00:00 15.4 11 Sur 21 Sudeste 0 -- -- 62
2019-04-05 12:00:00 14.2 9 Sur 19 Sudeste 0 -- -- 66
2019-04-05 11:00:00 14.1 8 Sur 19 Sur 0 -- -- 67
2019-04-05 10:00:00 12.8 3 Sudoeste 9 Sudeste 0 -- -- 78
2019-04-05 09:00:00 12.2 0 Calma 9 Norte 0 -- -- 72
2019-04-05 08:00:00 10.8 5 Norte 11 Nordeste 0 -- -- 73
2019-04-05 07:00:00 10.3 4 Norte 12 Norte 0 -- -- 74
2019-04-05 06:00:00 10.2 0 Calma 8 Sudoeste 0 -- -- 74
2019-04-05 05:00:00 11 3 Sudoeste 16 Sudoeste 0 -- -- 70
2019-04-05 04:00:00 10.8 8 Sudoeste 18 Sudoeste 0 -- -- 70
2019-04-05 03:00:00 10.3 7 Sudoeste 21 Sudoeste 0 -- -- 67
2019-04-05 02:00:00 10.3 8 Sudoeste 21 Sudoeste 0 -- -- 63
2019-04-05 01:00:00 10.4 9 Sudoeste 20 Sudoeste 0 -- -- 59
2019-04-05 00:00:00 10.5 9 Sudoeste 19 Sudoeste 0 -- -- 55
2019-04-04 23:00:00 10.4 8 Sudoeste 17 Oeste 0 -- -- 53
2019-04-04 22:00:00 10.5 7 Oeste 14 Oeste 0 -- -- 51
2019-04-04 21:00:00 10.9 7 Sudoeste 18 Sudoeste 0 -- -- 50
2019-04-04 20:00:00 11.9 6 Sudoeste 23 Sudoeste 0 -- -- 47
2019-04-04 19:00:00 13.1 7 Sur 26 Sudeste 0 -- -- 45
2019-04-04 18:00:00 14.6 9 Sur 26 Sudoeste 0 -- -- 40
2019-04-04 17:00:00 16.4 10 Sudoeste 28 Sudoeste 0 -- -- 29
2019-04-04 16:00:00 15.4 9 Sudoeste 31 Sudoeste 0 -- -- 30
2019-04-04 15:00:00 14.8 10 Noroeste 34 Sudoeste 0 -- -- 32
2019-04-04 14:00:00 13.2 14 Oeste 39 Sudoeste 0 -- -- 34
2019-04-04 13:00:00 12.3 17 Oeste 45 Oeste 0 -- -- 36
2019-04-04 12:00:00 11.2 22 Oeste 54 Noroeste 0 -- -- 39
2019-04-04 11:00:00 9.5 26 Noroeste 61 Noroeste 0 -- -- 43
2019-04-04 10:00:00 8.3 25 Noroeste 62 Oeste 0 -- -- 46
2019-04-04 09:00:00 6.9 24 Noroeste 57 Noroeste 0 -- -- 48
2019-04-04 08:00:00 6.4 24 Noroeste 65 Oeste 0 -- -- 49
2019-04-04 07:00:00 6.7 22 Oeste 52 Oeste 0 -- -- 49
2019-04-04 06:00:00 6.7 21 Noroeste 57 Oeste 0 -- -- 50
2019-04-04 05:00:00 6.7 20 Noroeste 63 Oeste 0 -- -- 50
2019-04-04 04:00:00 7.5 28 Noroeste 60 Noroeste 0 -- -- 47
2019-04-04 03:00:00 7.7 30 Noroeste 64 Noroeste 0 -- -- 50
2019-04-04 02:00:00 8.2 2 Sudeste 62 Noroeste 0 -- -- 50
2019-04-04 01:00:00 8.8 16 Noroeste 54 Noroeste 0 -- -- 49
2019-04-04 00:00:00 9.5 9 Oeste 60 Noroeste 0 -- -- 47
2019-04-03 23:00:00 9.7 5 Oeste 31 Sudoeste 0 -- -- 51
2019-04-03 22:00:00 9.5 7 Sudeste 39 Sudoeste 0 -- -- 62
2019-04-03 21:00:00 9.9 4 Sudoeste 30 Norte 0.1 -- -- 58
2019-04-03 20:00:00 9.9 13 Noroeste 57 Noroeste 1.7 -- -- 60
2019-04-03 19:00:00 9.6 30 Noroeste 60 Noroeste 1.2 -- -- 63
2019-04-03 18:00:00 12.1 29 Noroeste 55 Noroeste 0 -- -- 53
2019-04-03 17:00:00 14.2 22 Noroeste 44 Noroeste 0 -- -- 52
2019-04-03 16:00:00 15 17 Noroeste 35 Noroeste 0 -- -- 45
2019-04-03 15:00:00 16.2 7 Sudeste 23 Oeste 0 -- -- 55
2019-04-03 14:00:00 16.1 0 Calma 21 Oeste 0 -- -- 51
2019-04-03 13:00:00 15.9 2 Sudeste 9 Sur 0 -- -- 65
2019-04-03 12:00:00 14.6 3 Este 9 Este 0 -- -- 71
2019-04-03 11:00:00 13.5 3 Este 6 Este 0 -- -- 77
2019-04-03 10:00:00 13.4 2 Este 8 Sudeste 0 -- -- 76
2019-04-03 09:00:00 13.1 3 Sudoeste 5 Oeste 0 -- -- 79
2019-04-03 08:00:00 11.2 0 Calma 10 Nordeste 0 -- -- 90
2019-04-03 07:00:00 12 4 Nordeste 12 Nordeste 0 -- -- 89
2019-04-03 06:00:00 12.3 4 Norte 13 Norte 0 -- -- 90
2019-04-03 05:00:00 12.2 5 Nordeste 14 Norte 0 -- -- 90
2019-04-03 04:00:00 12.6 5 Nordeste 19 Nordeste 0 -- -- 89
2019-04-03 03:00:00 12.5 7 Nordeste 19 Norte 0 -- -- 89
2019-04-03 02:00:00 12.6 6 Norte 26 Nordeste 0 -- -- 88
2019-04-03 01:00:00 12.3 5 Nordeste 15 Norte 0 -- -- 90
2019-04-03 00:00:00 11.5 3 Nordeste 7 Norte 0 -- -- 85
2019-04-02 23:00:00 12.4 3 Nordeste 7 Norte 0 -- -- 80
2019-04-02 22:00:00 13.9 2 Nordeste 10 Sudoeste 0 -- -- 74
2019-04-02 21:00:00 14.7 4 Sudoeste 15 Sudoeste 0 -- -- 74
2019-04-02 20:00:00 16.1 5 Sudoeste 19 Sudoeste 0 -- -- 61
2019-04-02 19:00:00 17.3 6 Sur 21 Sur 0 -- -- 60
2019-04-02 18:00:00 17 5 Sur 18 Sudeste 0 -- -- 68
2019-04-02 17:00:00 16.7 6 Sur 19 Sudoeste 0 -- -- 71
2019-04-02 16:00:00 16.5 6 Sudoeste 22 Sur 0 -- -- 71
2019-04-02 15:00:00 16.5 5 Sur 16 Sudoeste 0 -- -- 71
2019-04-02 14:00:00 17.3 5 Sur 19 Sur 0 -- -- 60
2019-04-02 13:00:00 17.5 6 Sur 22 Sur 0 -- -- 61
2019-04-02 12:00:00 15 8 Sur 19 Sur 0 -- -- 64
2019-04-02 11:00:00 13.6 5 Sur 11 Sur 0 -- -- 68
2019-04-02 10:00:00 13.2 4 Este 9 Este 0 -- -- 72
2019-04-02 09:00:00 11.3 0 Calma 4 Norte 0 -- -- 79
2019-04-02 08:00:00 8.5 0 Calma 6 Oeste 0 -- -- 79
2019-04-02 07:00:00 8.8 0 Calma 5 Oeste 0 -- -- 80
2019-04-02 06:00:00 9.9 0 Calma 7 Oeste 0 -- -- 73
2019-04-02 05:00:00 10.2 0 Calma 5 Sudoeste 0 -- -- 72
2019-04-02 04:00:00 11.5 0 Calma 8 Oeste 0 -- -- 72
2019-04-02 03:00:00 11.6 3 Oeste 7 Oeste 0 -- -- 64
2019-04-02 02:00:00 12.5 3 Oeste 7 Oeste 0 -- -- 67
2019-04-02 01:00:00 12.6 3 Sudoeste 7 Sudoeste 0 -- -- 66
2019-04-02 00:00:00 12.6 3 Oeste 7 Sudoeste 0 -- -- 67
2019-04-01 23:00:00 12.7 2 Sudoeste 7 Sudoeste 0 -- -- 70
2019-04-01 22:00:00 13 4 Sudoeste 8 Sudoeste 0 -- -- 70
2019-04-01 21:00:00 13 0 Calma 7 Sudoeste 0 -- -- 69
2019-04-01 20:00:00 13.6 3 Sudoeste 8 Sur 0 -- -- 67
2019-04-01 19:00:00 14.1 3 Sur 15 Sudoeste 0 -- -- 67
2019-04-01 18:00:00 14.3 6 Sur 14 Sur 0 -- -- 67
2019-04-01 17:00:00 14.8 5 Sur 15 Sudeste 0 -- -- 59
2019-04-01 16:00:00 15.1 4 Sur 12 Sur 0 -- -- 53
2019-04-01 15:00:00 15.7 3 Sudeste 14 Sudeste 0 -- -- 49
2019-04-01 14:00:00 15.3 2 Sur 11 Sur 0 -- -- 44
2019-04-01 13:00:00 15.3 4 Sur 8 Sur 0 -- -- 47
2019-04-01 12:00:00 14.7 3 Sudeste 10 Sudeste 0 -- -- 49
2019-04-01 11:00:00 14.8 4 Sudeste 10 Sudeste 0 -- -- 48
2019-04-01 10:00:00 13.3 0 Calma 2 Sudoeste 0 -- -- 53
2019-04-01 09:00:00 12.5 0 Calma 5 Oeste 0 -- -- 54
2019-04-01 08:00:00 11.8 0 Calma 5 Oeste 0 -- -- 56
2019-04-01 07:00:00 11.4 0 Calma 4 Norte 0 -- -- 62
2019-04-01 06:00:00 11.5 0 Calma 5 Este 0 -- -- 61
2019-04-01 05:00:00 11.2 0 Calma 5 Norte 0 -- -- 62
2019-04-01 04:00:00 11.6 0 Calma 10 Nordeste 0 -- -- 61
2019-04-01 03:00:00 12 2 Nordeste 10 Nordeste 0 -- -- 62
2019-04-01 02:00:00 12.1 4 Norte 11 Norte 0 -- -- 69
2019-04-01 01:00:00 12.1 3 Norte 21 Este 0 -- -- 76
2019-04-01 00:00:00 12.5 5 Nordeste 19 Nordeste 0 -- -- 78
2019-03-31 23:00:00 12.5 8 Nordeste 22 Nordeste 0 -- -- 80
2019-03-31 22:00:00 12.5 7 Nordeste 24 Nordeste 0 -- -- 82
2019-03-31 21:00:00 12.3 8 Nordeste 25 Nordeste 0 -- -- 83
2019-03-31 20:00:00 12.3 9 Nordeste 21 Nordeste 0 -- -- 87
2019-03-31 19:00:00 12.1 5 Nordeste 15 Nordeste 0.3 -- -- 89
2019-03-31 18:00:00 13.4 7 Nordeste 17 Nordeste 0 -- -- 75
2019-03-31 17:00:00 13.8 7 Nordeste 16 Nordeste 0 -- -- 73
2019-03-31 16:00:00 14.2 6 Nordeste 22 Nordeste 0 -- -- 76
2019-03-31 15:00:00 14.2 8 Nordeste 22 Nordeste 0 -- -- 70
2019-03-31 14:00:00 14.5 9 Nordeste 23 Nordeste 0 -- -- 68
2019-03-31 13:00:00 13.6 8 Nordeste 23 Nordeste 0 -- -- 70
2019-03-31 12:00:00 13.1 8 Nordeste 20 Nordeste 0 -- -- 68
2019-03-31 11:00:00 12.8 6 Nordeste 19 Nordeste 0 -- -- 68
2019-03-31 10:00:00 12.2 6 Nordeste 18 Nordeste 0 -- -- 68
2019-03-31 09:00:00 11.7 5 Norte 17 Nordeste 0 -- -- 70
2019-03-31 08:00:00 11.1 5 Norte 14 Nordeste 0 -- -- 71
2019-03-31 07:00:00 10.3 4 Norte 12 Norte 0 -- -- 73
2019-03-31 06:00:00 10.4 5 Norte 14 Norte 0 -- -- 73
2019-03-31 05:00:00 10.2 4 Norte 10 Norte 0 -- -- 76
2019-03-31 03:00:00 9.7 4 Norte 16 Nordeste 0 -- -- 78
2019-03-31 01:00:00 10.1 5 Norte 13 Nordeste 0 -- -- 79
2019-03-31 00:00:00 9.8 4 Norte 10 Nordeste 0 -- -- 79
2019-03-30 23:00:00 10.8 4 Norte 11 Norte 0 -- -- 75
2019-03-30 22:00:00 11.7 3 Este 8 Este 0 -- -- 72
2019-03-30 21:00:00 12 3 Nordeste 12 Este 0 -- -- 71
2019-03-30 20:00:00 12.3 6 Este 15 Este 0 -- -- 69
2019-03-30 19:00:00 12.8 5 Este 15 Nordeste 0 -- -- 69
2019-03-30 18:00:00 13.3 6 Nordeste 14 Este 0 -- -- 68
2019-03-30 17:00:00 14.5 7 Este 16 Este 0 -- -- 61
2019-03-30 16:00:00 14.6 6 Este 17 Este 0 -- -- 58
2019-03-30 15:00:00 15.5 6 Este 16 Este 0 -- -- 58
2019-03-30 14:00:00 15.9 8 Este 17 Este 0 -- -- 57
2019-03-30 13:00:00 15.4 8 Este 18 Este 0 -- -- 56
2019-03-30 12:00:00 15 7 Este 16 Este 0 -- -- 55
2019-03-30 11:00:00 14.1 7 Este 16 Este 0 -- -- 54
2019-03-30 10:00:00 13.4 6 Nordeste 16 Este 0 -- -- 60
2019-03-30 09:00:00 13 6 Nordeste 14 Nordeste 0 -- -- 63
2019-03-30 08:00:00 11.1 4 Norte 12 Norte 0 -- -- 71
2019-03-30 07:00:00 9.4 3 Norte 10 Norte 0 -- -- 78
2019-03-30 06:00:00 9.6 4 Norte 13 Norte 0 -- -- 77
2019-03-30 05:00:00 9.8 4 Norte 14 Norte 0 -- -- 78
2019-03-30 04:00:00 9.2 4 Norte 10 Noroeste 0 -- -- 81
2019-03-30 03:00:00 9.4 4 Norte 9 Nordeste 0 -- -- 80
2019-03-30 02:00:00 9.9 3 Norte 8 Norte 0 -- -- 79
2019-03-30 01:00:00 9.8 3 Norte 9 Nordeste 0 -- -- 81
2019-03-30 00:00:00 9.9 4 Norte 8 Norte 0 -- -- 78
2019-03-29 23:00:00 9.8 0 Calma 8 Norte 0 -- -- 74
2019-03-29 22:00:00 9.9 2 Norte 8 Norte 0 -- -- 71
2019-03-29 21:00:00 10.6 3 Norte 7 Norte 0 -- -- 68
2019-03-29 20:00:00 11.2 0 Calma 7 Nordeste 0 -- -- 64
2019-03-29 19:00:00 12.9 0 Calma 11 Este 0 -- -- 60
2019-03-29 18:00:00 14.4 4 Este 10 Este 0 -- -- 53
2019-03-29 17:00:00 15.3 4 Este 14 Este 0 -- -- 57
2019-03-29 16:00:00 14.9 5 Este 14 Este 0 -- -- 62
2019-03-29 15:00:00 15.9 6 Este 13 Este 0 -- -- 57
2019-03-29 14:00:00 16.6 6 Este 15 Este 0 -- -- 55
2019-03-29 13:00:00 15.9 7 Este 16 Este 0 -- -- 57
2019-03-29 12:00:00 15.7 5 Este 13 Este 0 -- -- 58
2019-03-29 11:00:00 14.8 5 Este 10 Sudeste 0 -- -- 61
2019-03-29 10:00:00 14.2 4 Este 10 Sudeste 0 -- -- 63
2019-03-29 09:00:00 12.5 3 Nordeste 9 Este 0 -- -- 71
2019-03-29 08:00:00 9.8 0 Calma 4 Este 0 -- -- 83
2019-03-29 07:00:00 8.1 0 Calma 5 Norte 0 -- -- 85
2019-03-29 06:00:00 7.8 0 Calma 5 Noroeste 0 -- -- 79
2019-03-29 05:00:00 8.1 3 Noroeste 5 Noroeste 0 -- -- 79
2019-03-29 04:00:00 7.5 0 Calma 6 Noroeste 0 -- -- 89
2019-03-29 03:00:00 7.7 0 Calma 5 Noroeste 0 -- -- 91
2019-03-29 02:00:00 8.1 0 Calma 4 Norte 0 -- -- 90
2019-03-29 01:00:00 8.8 3 Norte 7 Norte 0 -- -- 88
2019-03-29 00:00:00 8.3 0 Calma 5 Norte 0 -- -- 87
2019-03-28 23:00:00 8.7 0 Calma 3 Norte 0 -- -- 86
2019-03-28 22:00:00 9.3 0 Calma 3 Nordeste 0 -- -- 82
2019-03-28 21:00:00 9.9 0 Calma 2 Norte 0 -- -- 75
2019-03-28 20:00:00 11.4 0 Calma 5 Sudeste 0 -- -- 71
2019-03-28 19:00:00 13 2 Sur 9 Sur 0 -- -- 66
2019-03-28 18:00:00 14.4 3 Sudeste 12 Sur 0 -- -- 56
2019-03-28 17:00:00 15.5 6 Sur 13 Sudeste 0 -- -- 49
2019-03-28 16:00:00 15.8 4 Sur 16 Sudeste 0 -- -- 45
2019-03-28 15:00:00 16.4 6 Sudeste 15 Sudeste 0 -- -- 42
2019-03-28 14:00:00 17.8 8 Este -- -- -- -- -- 40
2019-03-28 13:00:00 17.5 6 Sudeste 13 Sur 0 -- -- 43
2019-03-28 12:00:00 17 7 Este 12 Este 0 -- -- 40
2019-03-28 11:00:00 16.4 5 Sudeste 13 Este 0 -- -- 45
2019-03-28 10:00:00 15.5 6 Este 20 Noroeste 0 -- -- 42
2019-03-28 09:00:00 13.4 3 Nordeste 8 Nordeste 0 -- -- 47
2019-03-28 08:00:00 10.8 0 Calma 10 Oeste 0 -- -- 53
2019-03-28 07:00:00 10.6 5 Oeste 15 Oeste 0 -- -- 51
2019-03-28 06:00:00 9.9 6 Oeste 10 Oeste 0 -- -- 62
2019-03-28 05:00:00 8.4 0 Calma 7 Norte 0 -- -- 79
2019-03-28 04:00:00 9.4 4 Norte 12 Oeste 0 -- -- 79
2019-03-28 03:00:00 10.4 5 Oeste 10 Oeste 0 -- -- 77
2019-03-28 02:00:00 10.3 4 Noroeste 9 Noroeste 0 -- -- 77
2019-03-28 01:00:00 10.6 5 Oeste 8 Noroeste 0 -- -- 77
2019-03-28 00:00:00 10 2 Oeste 7 Oeste 0 -- -- 78
2019-03-27 23:00:00 9.8 0 Calma 4 Sur 0 -- -- 79
2019-03-27 22:00:00 9.9 0 Calma 4 Sudoeste 0 -- -- 74
2019-03-27 21:00:00 11.5 0 Calma 8 Sur 0 -- -- 70
2019-03-27 20:00:00 12.3 2 Sudoeste 11 Sur 0 -- -- 67
2019-03-27 19:00:00 13.3 4 Sur 17 Sur 0 -- -- 66
2019-03-27 18:00:00 14.6 6 Sur 24 Sur 0 -- -- 61
2019-03-27 17:00:00 15.4 7 Sur 22 Sur 0 -- -- 59
2019-03-27 16:00:00 15 8 Sur 23 Sur 0 -- -- 53
2019-03-27 15:00:00 15.6 9 Sur 19 Sur 0 -- -- 50
2019-03-27 14:00:00 16 8 Sur 18 Sudeste 0 -- -- 53
2019-03-27 13:00:00 16.8 8 Este 15 Este 0 -- -- 47
2019-03-27 12:00:00 16.8 6 Este 15 Este 0 -- -- 46
2019-03-27 11:00:00 16.4 5 Este 13 Este 0 -- -- 47
2019-03-27 10:00:00 14.6 4 Sudeste 10 Este 0 -- -- 50
2019-03-27 09:00:00 13 5 Sudeste 10 Sudeste 0 -- -- 55
2019-03-27 08:00:00 10 0 Calma 9 Oeste 0 -- -- 56
2019-03-27 07:00:00 9.3 4 Noroeste 9 Noroeste 0 -- -- 59
2019-03-27 06:00:00 7.2 0 Calma 6 Sudoeste 0 -- -- 69
2019-03-27 05:00:00 7.7 3 Sudoeste 6 Norte 0 -- -- 67
2019-03-27 04:00:00 7.9 2 Norte 5 Norte 0 -- -- 67
2019-03-27 03:00:00 9.4 0 Calma 9 Sudoeste 0 -- -- 62
2019-03-27 02:00:00 11.1 7 Sudoeste 18 Oeste 0 -- -- 58
2019-03-27 01:00:00 11.4 8 Sudoeste 23 Sudoeste 0 -- -- 57
2019-03-27 00:00:00 11.5 9 Sudoeste 21 Sudoeste 0 -- -- 58
2019-03-26 23:00:00 11.5 4 Sudoeste 14 Sur 0 -- -- 57
2019-03-26 22:00:00 12.3 5 Sur 13 Sur 0 -- -- 55
2019-03-26 21:00:00 12.6 5 Sur 13 Sur 0 -- -- 54
2019-03-26 20:00:00 12.8 5 Sudeste 13 Sur 0 -- -- 53
2019-03-26 19:00:00 13.2 4 Sudeste 13 Este 0 -- -- 52
2019-03-26 18:00:00 14.5 5 Este 19 Este 0 -- -- 50
2019-03-26 17:00:00 15.4 6 Este 34 Este 0 -- -- 51
2019-03-26 16:00:00 17.2 6 Sur 23 Sur 0 -- -- 46
2019-03-26 15:00:00 18 10 Sudeste 21 Sur 0 -- -- 38
2019-03-26 14:00:00 19.4 8 Sudeste 17 Este 0 -- -- 35
2019-03-26 13:00:00 19.5 6 Este 15 Este 0 -- -- 33
2019-03-26 12:00:00 18.5 5 Sudeste 24 Noroeste 0 -- -- 35
2019-03-26 11:00:00 15.8 10 Oeste 26 Oeste 0 -- -- 39
2019-03-26 10:00:00 13.9 13 Oeste 41 Noroeste 0 -- -- 44
2019-03-26 09:00:00 12 18 Noroeste 36 Noroeste 0 -- -- 48
2019-03-26 08:00:00 10.6 18 Noroeste 44 Noroeste 0 -- -- 51
2019-03-26 07:00:00 10 25 Noroeste 48 Noroeste 0 -- -- 52
2019-03-26 06:00:00 10.8 27 Noroeste 55 Noroeste 0 -- -- 50
2019-03-26 05:00:00 10.4 26 Noroeste 63 Noroeste 0 -- -- 51
2019-03-26 04:00:00 10.5 22 Noroeste 54 Noroeste 0 -- -- 50
2019-03-26 03:00:00 10.8 23 Noroeste 78 Noroeste 0 -- -- 48
2019-03-26 02:00:00 11.5 23 Noroeste 61 Noroeste 0 -- -- 47
2019-03-26 01:00:00 12.2 26 Noroeste 61 Noroeste 0 -- -- 46
2019-03-26 00:00:00 12.9 24 Noroeste 56 Oeste 0 -- -- 43
2019-03-25 23:00:00 14 16 Noroeste 44 Norte 0 -- -- 41
2019-03-25 22:00:00 15.8 12 Norte 64 Noroeste 0 -- -- 38
2019-03-25 21:00:00 16.3 4 Noroeste 36 Noroeste 0 -- -- 37
2019-03-25 20:00:00 17 10 Sudoeste 20 Sudoeste 0 -- -- 36
2019-03-25 19:00:00 18.4 10 Sudoeste 27 Sudoeste 0 -- -- 35
2019-03-25 18:00:00 20.6 9 Sudoeste 27 Sudoeste 0 -- -- 34
2019-03-25 17:00:00 20 3 Sudoeste 21 Sur 0 -- -- 41
2019-03-25 16:00:00 21.8 8 Noroeste 32 Noroeste 0 -- -- 36
2019-03-25 15:00:00 21.1 13 Oeste 31 Oeste 0 -- -- 37
2019-03-25 14:00:00 21.1 11 Noroeste 37 Oeste 0 -- -- 38
2019-03-25 13:00:00 19.8 11 Noroeste 33 Norte 0 -- -- 39
2019-03-25 12:00:00 18.5 16 Noroeste 50 Noroeste 0 -- -- 39
2019-03-25 11:00:00 17.9 15 Noroeste 42 Noroeste 0 -- -- 39
2019-03-25 10:00:00 17.2 20 Noroeste 48 Noroeste 0 -- -- 40
2019-03-25 09:00:00 15.8 25 Noroeste 49 Oeste 0 -- -- 41
2019-03-25 08:00:00 15.3 24 Noroeste 49 Noroeste 0 -- -- 41
2019-03-25 07:00:00 15.4 22 Noroeste 48 Noroeste 0 -- -- 41
2019-03-25 06:00:00 15.9 22 Noroeste 48 Norte 0 -- -- 42
2019-03-25 05:00:00 16.7 23 Noroeste 43 Noroeste 0 -- -- 42
2019-03-25 04:00:00 17 17 Noroeste 34 Noroeste 0 -- -- 41
2019-03-25 03:00:00 11.9 0 Calma 11 Sudoeste 0 -- -- 47
2019-03-25 02:00:00 10.8 0 Calma 5 Oeste 0 -- -- 48
2019-03-25 01:00:00 11 2 Oeste 4 Oeste 0 -- -- 47
2019-03-25 00:00:00 11.4 0 Calma 5 Oeste 0 -- -- 47